RHO weather

Diagoras Airport
Rodes Island, Dodecanese, Greece

Public forecast

Using degrees Celsius for public forecast. Weather courtesy of forecast.io.

METAR (pilot weather report)

Retrieved 2019/05/25 19:50 UTC (50 minutes ago):

LGRP 251950Z 24013KT CAVOK 20/14 Q1014 NOSIG

TAF (pilot weather forecast)

Retrieved 2019/05/25 18:12 UTC (2 hours ago):

TAF LGRP 251700Z 2518/2618 26015KT 9999 FEW020